Massillon, Ohio
Current Conditions -  °F | °C
As of 8:51 AM on Saturday 22 Nov 2014 (Local Time) from KCAK Reporting Station
Freezing Rain Freezing Rain  
Wind Chill: 20°   Ceiling: 1300
Heat Index: 30°   Visibility: 8mi
Dew Point: 17°   Wind: 13mph
Humidity: 59%   Direction: 190°S
Pressure: 30.25"   Gusts: NA
Location:  40.79°N, 81.52°W
Report Text: KCAK 221351Z 19011KT 8SM -FZRA BKN013 OVC070 M01/M08 A3025 RMK AO2 SLP260 P0000 T10111083 $
Loading
Personal Weather Stations






























Interactive Weather Map New forecast layout! Learn more

10-Day Weather Forecast

Advertisements
Track Severe Weather on mobile